sensor_id;sensor_type;location;lat;lon;timestamp;P1;durP1;ratioP1;P2;durP2;ratioP2
8831;SDS011;4452;50.756;4.472;2023-08-07T00:01:34;8.45;;;3.47;;
8831;SDS011;4452;50.756;4.472;2023-08-07T00:04:00;15.18;;;3.35;;
8831;SDS011;4452;50.756;4.472;2023-08-07T00:06:26;9.40;;;3.60;;
8831;SDS011;4452;50.756;4.472;2023-08-07T00:08:51;16.67;;;4.10;;
8831;SDS011;4452;50.756;4.472;2023-08-07T00:11:20;8.90;;;3.40;;
8831;SDS011;4452;50.756;4.472;2023-08-07T00:13:47;10.05;;;3.75;;
8831;SDS011;4452;50.756;4.472;2023-08-07T00:16:12;14.98;;;3.40;;
8831;SDS011;4452;50.756;4.472;2023-08-07T00:18:42;6.25;;;3.42;;
8831;SDS011;4452;50.756;4.472;2023-08-07T00:21:16;10.25;;;4.15;;
8831;SDS011;4452;50.756;4.472;2023-08-07T00:24:14;6.22;;;3.00;;
8831;SDS011;4452;50.756;4.472;2023-08-07T00:27:11;10.02;;;3.33;;
8831;SDS011;4452;50.756;4.472;2023-08-07T00:29:38;7.53;;;3.45;;
8831;SDS011;4452;50.756;4.472;2023-08-07T00:32:07;8.73;;;3.50;;
8831;SDS011;4452;50.756;4.472;2023-08-07T00:34:58;13.23;;;3.53;;
8831;SDS011;4452;50.756;4.472;2023-08-07T00:37:35;8.05;;;3.10;;
8831;SDS011;4452;50.756;4.472;2023-08-07T00:40:52;7.20;;;2.88;;
8831;SDS011;4452;50.756;4.472;2023-08-07T00:53:19;12.40;;;3.45;;
8831;SDS011;4452;50.756;4.472;2023-08-07T01:12:52;11.10;;;3.45;;
8831;SDS011;4452;50.756;4.472;2023-08-07T01:19:57;10.65;;;3.35;;
8831;SDS011;4452;50.756;4.472;2023-08-07T01:26:27;4.95;;;2.88;;
8831;SDS011;4452;50.756;4.472;2023-08-07T01:29:13;8.57;;;3.45;;
8831;SDS011;4452;50.756;4.472;2023-08-07T01:31:59;9.70;;;3.17;;
8831;SDS011;4452;50.756;4.472;2023-08-07T01:34:29;9.38;;;3.40;;
8831;SDS011;4452;50.756;4.472;2023-08-07T01:36:55;4.18;;;2.75;;
8831;SDS011;4452;50.756;4.472;2023-08-07T01:39:24;10.02;;;3.33;;
8831;SDS011;4452;50.756;4.472;2023-08-07T01:41:50;7.60;;;3.38;;
8831;SDS011;4452;50.756;4.472;2023-08-07T01:44:16;8.27;;;3.45;;
8831;SDS011;4452;50.756;4.472;2023-08-07T01:46:42;4.72;;;3.38;;
8831;SDS011;4452;50.756;4.472;2023-08-07T01:49:11;14.70;;;4.00;;
8831;SDS011;4452;50.756;4.472;2023-08-07T01:51:37;4.75;;;3.03;;
8831;SDS011;4452;50.756;4.472;2023-08-07T01:54:03;11.82;;;3.33;;
8831;SDS011;4452;50.756;4.472;2023-08-07T01:56:29;6.72;;;3.42;;
8831;SDS011;4452;50.756;4.472;2023-08-07T01:58:55;7.75;;;3.55;;
8831;SDS011;4452;50.756;4.472;2023-08-07T02:01:20;3.45;;;2.80;;
8831;SDS011;4452;50.756;4.472;2023-08-07T02:03:49;7.72;;;3.00;;
8831;SDS011;4452;50.756;4.472;2023-08-07T02:06:15;4.82;;;3.00;;
8831;SDS011;4452;50.756;4.472;2023-08-07T02:08:41;7.90;;;3.40;;
8831;SDS011;4452;50.756;4.472;2023-08-07T02:11:07;9.65;;;3.50;;
8831;SDS011;4452;50.756;4.472;2023-08-07T02:14:01;4.90;;;2.95;;
8831;SDS011;4452;50.756;4.472;2023-08-07T02:20:32;7.30;;;3.05;;
8831;SDS011;4452;50.756;4.472;2023-08-07T02:34:38;6.45;;;2.80;;
8831;SDS011;4452;50.756;4.472;2023-08-07T02:37:06;6.03;;;3.10;;
8831;SDS011;4452;50.756;4.472;2023-08-07T02:40:03;8.55;;;2.88;;
8831;SDS011;4452;50.756;4.472;2023-08-07T02:45:51;4.20;;;2.72;;
8831;SDS011;4452;50.756;4.472;2023-08-07T02:48:34;10.93;;;2.90;;
8831;SDS011;4452;50.756;4.472;2023-08-07T02:51:24;6.03;;;2.90;;
8831;SDS011;4452;50.756;4.472;2023-08-07T02:53:56;5.47;;;2.60;;
8831;SDS011;4452;50.756;4.472;2023-08-07T03:00:08;9.00;;;2.88;;
8831;SDS011;4452;50.756;4.472;2023-08-07T03:03:43;5.88;;;3.35;;
8831;SDS011;4452;50.756;4.472;2023-08-07T03:07:02;5.65;;;2.80;;
8831;SDS011;4452;50.756;4.472;2023-08-07T03:09:34;4.28;;;2.92;;
8831;SDS011;4452;50.756;4.472;2023-08-07T03:12:00;7.03;;;3.03;;
8831;SDS011;4452;50.756;4.472;2023-08-07T03:14:28;5.32;;;2.95;;
8831;SDS011;4452;50.756;4.472;2023-08-07T03:16:55;5.30;;;2.70;;
8831;SDS011;4452;50.756;4.472;2023-08-07T03:19:21;3.65;;;3.00;;
8831;SDS011;4452;50.756;4.472;2023-08-07T03:21:47;8.57;;;3.30;;
8831;SDS011;4452;50.756;4.472;2023-08-07T03:24:12;5.80;;;3.00;;
8831;SDS011;4452;50.756;4.472;2023-08-07T03:26:41;5.43;;;2.92;;
8831;SDS011;4452;50.756;4.472;2023-08-07T03:29:12;8.50;;;2.85;;
8831;SDS011;4452;50.756;4.472;2023-08-07T03:31:38;5.05;;;2.90;;
8831;SDS011;4452;50.756;4.472;2023-08-07T03:34:04;7.22;;;2.88;;
8831;SDS011;4452;50.756;4.472;2023-08-07T03:36:30;3.75;;;2.83;;
8831;SDS011;4452;50.756;4.472;2023-08-07T03:39:57;5.60;;;2.72;;
8831;SDS011;4452;50.756;4.472;2023-08-07T03:46:06;17.15;;;3.35;;
8831;SDS011;4452;50.756;4.472;2023-08-07T03:48:32;7.47;;;2.63;;
8831;SDS011;4452;50.756;4.472;2023-08-07T03:51:06;5.68;;;2.72;;
8831;SDS011;4452;50.756;4.472;2023-08-07T03:53:37;7.13;;;3.13;;
8831;SDS011;4452;50.756;4.472;2023-08-07T03:56:03;5.03;;;2.58;;
8831;SDS011;4452;50.756;4.472;2023-08-07T03:58:30;9.00;;;3.33;;
8831;SDS011;4452;50.756;4.472;2023-08-07T04:00:56;8.63;;;3.22;;
8831;SDS011;4452;50.756;4.472;2023-08-07T04:03:24;2.92;;;2.60;;
8831;SDS011;4452;50.756;4.472;2023-08-07T04:05:53;5.43;;;2.90;;
8831;SDS011;4452;50.756;4.472;2023-08-07T04:08:21;11.50;;;2.78;;
8831;SDS011;4452;50.756;4.472;2023-08-07T04:11:00;7.90;;;3.17;;
8831;SDS011;4452;50.756;4.472;2023-08-07T04:13:30;4.68;;;2.63;;
8831;SDS011;4452;50.756;4.472;2023-08-07T04:15:59;8.45;;;3.45;;
8831;SDS011;4452;50.756;4.472;2023-08-07T04:18:34;7.27;;;3.23;;
8831;SDS011;4452;50.756;4.472;2023-08-07T04:21:00;5.70;;;3.08;;
8831;SDS011;4452;50.756;4.472;2023-08-07T04:30:54;6.65;;;2.97;;
8831;SDS011;4452;50.756;4.472;2023-08-07T04:34:41;6.53;;;2.88;;
8831;SDS011;4452;50.756;4.472;2023-08-07T04:41:51;5.45;;;2.83;;
8831;SDS011;4452;50.756;4.472;2023-08-07T04:45:09;4.60;;;2.95;;
8831;SDS011;4452;50.756;4.472;2023-08-07T04:48:12;10.35;;;2.78;;
8831;SDS011;4452;50.756;4.472;2023-08-07T04:50:39;10.70;;;3.40;;
8831;SDS011;4452;50.756;4.472;2023-08-07T04:53:05;5.35;;;2.95;;
8831;SDS011;4452;50.756;4.472;2023-08-07T04:55:31;8.07;;;3.55;;
8831;SDS011;4452;50.756;4.472;2023-08-07T04:58:20;12.38;;;2.90;;
8831;SDS011;4452;50.756;4.472;2023-08-07T05:00:46;14.00;;;3.13;;
8831;SDS011;4452;50.756;4.472;2023-08-07T05:03:12;11.68;;;3.22;;
8831;SDS011;4452;50.756;4.472;2023-08-07T05:05:59;6.63;;;3.50;;
8831;SDS011;4452;50.756;4.472;2023-08-07T05:08:25;7.75;;;3.47;;
8831;SDS011;4452;50.756;4.472;2023-08-07T05:10:51;10.00;;;3.13;;
8831;SDS011;4452;50.756;4.472;2023-08-07T05:13:26;10.98;;;2.95;;
8831;SDS011;4452;50.756;4.472;2023-08-07T05:15:53;5.95;;;2.92;;
8831;SDS011;4452;50.756;4.472;2023-08-07T05:18:19;8.60;;;2.75;;
8831;SDS011;4452;50.756;4.472;2023-08-07T05:20:45;5.80;;;3.10;;
8831;SDS011;4452;50.756;4.472;2023-08-07T05:23:11;8.52;;;3.20;;
8831;SDS011;4452;50.756;4.472;2023-08-07T05:25:37;10.00;;;2.92;;
8831;SDS011;4452;50.756;4.472;2023-08-07T05:28:03;8.05;;;3.08;;
8831;SDS011;4452;50.756;4.472;2023-08-07T05:30:30;7.85;;;3.30;;
8831;SDS011;4452;50.756;4.472;2023-08-07T05:32:59;7.82;;;2.95;;
8831;SDS011;4452;50.756;4.472;2023-08-07T05:35:25;7.00;;;3.30;;
8831;SDS011;4452;50.756;4.472;2023-08-07T05:37:51;5.25;;;3.20;;
8831;SDS011;4452;50.756;4.472;2023-08-07T05:40:33;5.53;;;3.20;;
8831;SDS011;4452;50.756;4.472;2023-08-07T05:43:01;6.75;;;2.92;;
8831;SDS011;4452;50.756;4.472;2023-08-07T05:45:27;8.00;;;2.78;;
8831;SDS011;4452;50.756;4.472;2023-08-07T05:47:53;8.02;;;3.30;;
8831;SDS011;4452;50.756;4.472;2023-08-07T05:50:19;5.63;;;3.05;;
8831;SDS011;4452;50.756;4.472;2023-08-07T05:53:08;8.60;;;3.45;;
8831;SDS011;4452;50.756;4.472;2023-08-07T05:55:33;9.32;;;3.13;;
8831;SDS011;4452;50.756;4.472;2023-08-07T05:57:59;7.22;;;3.30;;
8831;SDS011;4452;50.756;4.472;2023-08-07T06:00:25;6.90;;;3.30;;
8831;SDS011;4452;50.756;4.472;2023-08-07T06:02:51;7.35;;;3.60;;
8831;SDS011;4452;50.756;4.472;2023-08-07T06:05:17;8.30;;;3.28;;
8831;SDS011;4452;50.756;4.472;2023-08-07T06:07:42;5.30;;;3.20;;
8831;SDS011;4452;50.756;4.472;2023-08-07T06:10:08;4.85;;;3.50;;
8831;SDS011;4452;50.756;4.472;2023-08-07T06:12:34;7.13;;;3.17;;
8831;SDS011;4452;50.756;4.472;2023-08-07T06:15:00;12.70;;;3.67;;
8831;SDS011;4452;50.756;4.472;2023-08-07T06:17:26;13.73;;;3.50;;
8831;SDS011;4452;50.756;4.472;2023-08-07T06:19:52;7.60;;;3.67;;
8831;SDS011;4452;50.756;4.472;2023-08-07T06:22:18;16.52;;;3.33;;
8831;SDS011;4452;50.756;4.472;2023-08-07T06:24:44;7.38;;;3.28;;
8831;SDS011;4452;50.756;4.472;2023-08-07T06:27:10;8.25;;;3.15;;
8831;SDS011;4452;50.756;4.472;2023-08-07T06:29:35;7.05;;;3.15;;
8831;SDS011;4452;50.756;4.472;2023-08-07T06:32:01;5.82;;;3.25;;
8831;SDS011;4452;50.756;4.472;2023-08-07T06:34:27;9.73;;;3.90;;
8831;SDS011;4452;50.756;4.472;2023-08-07T06:36:53;9.00;;;3.05;;
8831;SDS011;4452;50.756;4.472;2023-08-07T06:39:19;6.13;;;3.08;;
8831;SDS011;4452;50.756;4.472;2023-08-07T06:41:45;12.15;;;4.07;;
8831;SDS011;4452;50.756;4.472;2023-08-07T06:44:11;7.85;;;3.13;;
8831;SDS011;4452;50.756;4.472;2023-08-07T06:46:36;13.25;;;4.57;;
8831;SDS011;4452;50.756;4.472;2023-08-07T06:49:02;13.35;;;3.20;;
8831;SDS011;4452;50.756;4.472;2023-08-07T06:51:28;8.20;;;3.33;;
8831;SDS011;4452;50.756;4.472;2023-08-07T06:53:53;6.90;;;3.90;;
8831;SDS011;4452;50.756;4.472;2023-08-07T06:56:20;8.65;;;4.10;;
8831;SDS011;4452;50.756;4.472;2023-08-07T06:58:46;5.80;;;3.60;;
8831;SDS011;4452;50.756;4.472;2023-08-07T07:01:11;7.80;;;3.40;;
8831;SDS011;4452;50.756;4.472;2023-08-07T07:03:40;9.75;;;3.70;;
8831;SDS011;4452;50.756;4.472;2023-08-07T07:06:07;12.75;;;3.70;;
8831;SDS011;4452;50.756;4.472;2023-08-07T07:08:33;12.48;;;4.05;;
8831;SDS011;4452;50.756;4.472;2023-08-07T07:10:59;8.85;;;3.80;;
8831;SDS011;4452;50.756;4.472;2023-08-07T07:13:26;10.77;;;3.55;;
8831;SDS011;4452;50.756;4.472;2023-08-07T07:15:54;15.45;;;3.67;;
8831;SDS011;4452;50.756;4.472;2023-08-07T07:18:20;13.68;;;3.63;;
8831;SDS011;4452;50.756;4.472;2023-08-07T07:20:46;10.50;;;3.28;;
8831;SDS011;4452;50.756;4.472;2023-08-07T07:23:12;6.93;;;3.28;;
8831;SDS011;4452;50.756;4.472;2023-08-07T07:25:38;6.68;;;3.50;;
8831;SDS011;4452;50.756;4.472;2023-08-07T07:28:03;6.75;;;3.15;;
8831;SDS011;4452;50.756;4.472;2023-08-07T07:30:29;6.78;;;3.63;;
8831;SDS011;4452;50.756;4.472;2023-08-07T07:32:55;8.65;;;3.75;;
8831;SDS011;4452;50.756;4.472;2023-08-07T07:35:20;8.15;;;3.47;;
8831;SDS011;4452;50.756;4.472;2023-08-07T07:37:46;4.13;;;3.25;;
8831;SDS011;4452;50.756;4.472;2023-08-07T07:40:12;4.75;;;3.35;;
8831;SDS011;4452;50.756;4.472;2023-08-07T07:42:37;5.10;;;3.22;;
8831;SDS011;4452;50.756;4.472;2023-08-07T07:45:03;6.85;;;3.38;;
8831;SDS011;4452;50.756;4.472;2023-08-07T07:47:29;6.20;;;3.35;;
8831;SDS011;4452;50.756;4.472;2023-08-07T07:50:04;5.80;;;3.40;;
8831;SDS011;4452;50.756;4.472;2023-08-07T07:52:34;8.55;;;3.47;;
8831;SDS011;4452;50.756;4.472;2023-08-07T07:55:02;7.30;;;3.42;;
8831;SDS011;4452;50.756;4.472;2023-08-07T07:57:28;3.30;;;2.97;;
8831;SDS011;4452;50.756;4.472;2023-08-07T07:59:57;6.18;;;3.10;;
8831;SDS011;4452;50.756;4.472;2023-08-07T08:02:23;7.97;;;3.67;;
8831;SDS011;4452;50.756;4.472;2023-08-07T08:04:50;7.68;;;3.67;;
8831;SDS011;4452;50.756;4.472;2023-08-07T08:07:16;3.03;;;2.80;;
8831;SDS011;4452;50.756;4.472;2023-08-07T08:09:42;8.43;;;4.18;;
8831;SDS011;4452;50.756;4.472;2023-08-07T08:12:07;6.05;;;3.30;;
8831;SDS011;4452;50.756;4.472;2023-08-07T08:14:34;4.22;;;2.92;;
8831;SDS011;4452;50.756;4.472;2023-08-07T08:16:59;6.18;;;3.10;;
8831;SDS011;4452;50.756;4.472;2023-08-07T08:19:25;7.63;;;3.63;;
8831;SDS011;4452;50.756;4.472;2023-08-07T08:21:51;4.18;;;2.75;;
8831;SDS011;4452;50.756;4.472;2023-08-07T08:24:16;7.20;;;2.60;;
8831;SDS011;4452;50.756;4.472;2023-08-07T08:26:42;6.38;;;2.40;;
8831;SDS011;4452;50.756;4.472;2023-08-07T08:29:08;10.02;;;2.70;;
8831;SDS011;4452;50.756;4.472;2023-08-07T08:31:34;4.90;;;2.70;;
8831;SDS011;4452;50.756;4.472;2023-08-07T08:34:00;2.75;;;2.50;;
8831;SDS011;4452;50.756;4.472;2023-08-07T08:36:26;4.40;;;2.65;;
8831;SDS011;4452;50.756;4.472;2023-08-07T08:38:51;5.63;;;3.15;;
8831;SDS011;4452;50.756;4.472;2023-08-07T08:41:17;6.85;;;3.20;;
8831;SDS011;4452;50.756;4.472;2023-08-07T08:43:45;7.68;;;2.90;;
8831;SDS011;4452;50.756;4.472;2023-08-07T08:46:15;6.32;;;2.95;;
8831;SDS011;4452;50.756;4.472;2023-08-07T08:48:42;8.55;;;3.00;;
8831;SDS011;4452;50.756;4.472;2023-08-07T08:51:12;2.50;;;2.30;;
8831;SDS011;4452;50.756;4.472;2023-08-07T08:53:38;2.58;;;2.47;;
8831;SDS011;4452;50.756;4.472;2023-08-07T08:56:05;4.78;;;2.80;;
8831;SDS011;4452;50.756;4.472;2023-08-07T08:58:32;5.45;;;2.97;;
8831;SDS011;4452;50.756;4.472;2023-08-07T09:00:59;2.53;;;2.35;;
8831;SDS011;4452;50.756;4.472;2023-08-07T09:03:25;3.83;;;2.88;;
8831;SDS011;4452;50.756;4.472;2023-08-07T09:05:58;7.43;;;2.60;;
8831;SDS011;4452;50.756;4.472;2023-08-07T09:08:27;2.75;;;2.55;;
8831;SDS011;4452;50.756;4.472;2023-08-07T09:10:55;6.43;;;2.83;;
8831;SDS011;4452;50.756;4.472;2023-08-07T09:13:22;6.85;;;2.58;;
8831;SDS011;4452;50.756;4.472;2023-08-07T09:15:52;4.10;;;2.78;;
8831;SDS011;4452;50.756;4.472;2023-08-07T09:18:18;3.00;;;2.70;;
8831;SDS011;4452;50.756;4.472;2023-08-07T09:20:45;4.95;;;2.75;;
8831;SDS011;4452;50.756;4.472;2023-08-07T09:23:11;7.88;;;3.13;;
8831;SDS011;4452;50.756;4.472;2023-08-07T09:25:37;5.85;;;2.85;;
8831;SDS011;4452;50.756;4.472;2023-08-07T09:28:06;4.70;;;2.78;;
8831;SDS011;4452;50.756;4.472;2023-08-07T09:30:35;4.05;;;2.70;;
8831;SDS011;4452;50.756;4.472;2023-08-07T09:33:03;5.78;;;2.60;;
8831;SDS011;4452;50.756;4.472;2023-08-07T09:35:30;6.55;;;2.60;;
8831;SDS011;4452;50.756;4.472;2023-08-07T09:37:57;4.47;;;2.65;;
8831;SDS011;4452;50.756;4.472;2023-08-07T09:40:23;2.60;;;2.40;;
8831;SDS011;4452;50.756;4.472;2023-08-07T09:42:52;4.35;;;2.65;;
8831;SDS011;4452;50.756;4.472;2023-08-07T09:47:45;4.45;;;2.95;;
8831;SDS011;4452;50.756;4.472;2023-08-07T09:50:15;2.70;;;2.50;;
8831;SDS011;4452;50.756;4.472;2023-08-07T09:52:45;6.25;;;2.63;;
8831;SDS011;4452;50.756;4.472;2023-08-07T09:55:13;3.58;;;2.30;;
8831;SDS011;4452;50.756;4.472;2023-08-07T09:57:41;5.45;;;2.45;;
8831;SDS011;4452;50.756;4.472;2023-08-07T10:00:08;3.03;;;2.70;;
8831;SDS011;4452;50.756;4.472;2023-08-07T10:02:38;2.75;;;2.55;;
8831;SDS011;4452;50.756;4.472;2023-08-07T10:05:05;2.60;;;2.40;;
8831;SDS011;4452;50.756;4.472;2023-08-07T10:07:33;6.88;;;3.03;;
8831;SDS011;4452;50.756;4.472;2023-08-07T10:09:59;6.07;;;2.70;;
8831;SDS011;4452;50.756;4.472;2023-08-07T10:12:26;2.58;;;2.38;;
8831;SDS011;4452;50.756;4.472;2023-08-07T10:14:53;2.83;;;2.47;;
8831;SDS011;4452;50.756;4.472;2023-08-07T10:17:21;2.70;;;2.40;;
8831;SDS011;4452;50.756;4.472;2023-08-07T10:19:47;2.80;;;2.58;;
8831;SDS011;4452;50.756;4.472;2023-08-07T10:22:14;3.05;;;2.40;;
8831;SDS011;4452;50.756;4.472;2023-08-07T10:24:41;2.20;;;2.10;;
8831;SDS011;4452;50.756;4.472;2023-08-07T10:27:09;7.65;;;2.60;;
8831;SDS011;4452;50.756;4.472;2023-08-07T10:29:36;2.47;;;2.22;;
8831;SDS011;4452;50.756;4.472;2023-08-07T10:32:03;3.63;;;2.70;;
8831;SDS011;4452;50.756;4.472;2023-08-07T10:34:33;4.10;;;2.80;;
8831;SDS011;4452;50.756;4.472;2023-08-07T10:36:59;2.88;;;2.60;;
8831;SDS011;4452;50.756;4.472;2023-08-07T10:39:24;3.92;;;2.75;;
8831;SDS011;4452;50.756;4.472;2023-08-07T10:41:54;2.88;;;2.67;;
8831;SDS011;4452;50.756;4.472;2023-08-07T10:44:29;2.75;;;2.50;;
8831;SDS011;4452;50.756;4.472;2023-08-07T10:46:58;5.10;;;3.15;;
8831;SDS011;4452;50.756;4.472;2023-08-07T10:49:30;3.00;;;2.80;;
8831;SDS011;4452;50.756;4.472;2023-08-07T10:52:09;2.67;;;2.47;;
8831;SDS011;4452;50.756;4.472;2023-08-07T10:54:41;2.55;;;2.40;;
8831;SDS011;4452;50.756;4.472;2023-08-07T10:57:11;2.75;;;2.47;;
8831;SDS011;4452;50.756;4.472;2023-08-07T10:59:50;2.53;;;2.33;;
8831;SDS011;4452;50.756;4.472;2023-08-07T11:02:26;3.58;;;2.60;;
8831;SDS011;4452;50.756;4.472;2023-08-07T11:04:54;3.58;;;2.63;;
8831;SDS011;4452;50.756;4.472;2023-08-07T11:07:27;3.30;;;2.70;;
8831;SDS011;4452;50.756;4.472;2023-08-07T11:09:54;3.15;;;2.25;;
8831;SDS011;4452;50.756;4.472;2023-08-07T11:12:20;4.10;;;2.83;;
8831;SDS011;4452;50.756;4.472;2023-08-07T11:14:49;3.00;;;2.70;;
8831;SDS011;4452;50.756;4.472;2023-08-07T11:17:14;2.65;;;2.55;;
8831;SDS011;4452;50.756;4.472;2023-08-07T11:19:41;3.38;;;2.30;;
8831;SDS011;4452;50.756;4.472;2023-08-07T11:22:07;3.03;;;2.70;;
8831;SDS011;4452;50.756;4.472;2023-08-07T11:24:33;2.83;;;2.63;;
8831;SDS011;4452;50.756;4.472;2023-08-07T11:26:59;4.65;;;2.90;;
8831;SDS011;4452;50.756;4.472;2023-08-07T11:29:25;3.17;;;2.50;;
8831;SDS011;4452;50.756;4.472;2023-08-07T11:31:51;4.30;;;2.70;;
8831;SDS011;4452;50.756;4.472;2023-08-07T11:34:17;7.03;;;2.60;;
8831;SDS011;4452;50.756;4.472;2023-08-07T11:36:44;6.65;;;3.30;;
8831;SDS011;4452;50.756;4.472;2023-08-07T11:39:11;4.10;;;2.80;;
8831;SDS011;4452;50.756;4.472;2023-08-07T11:41:37;8.10;;;3.20;;
8831;SDS011;4452;50.756;4.472;2023-08-07T11:44:03;3.50;;;2.58;;
8831;SDS011;4452;50.756;4.472;2023-08-07T11:46:29;2.60;;;2.40;;
8831;SDS011;4452;50.756;4.472;2023-08-07T11:48:55;2.67;;;2.45;;
8831;SDS011;4452;50.756;4.472;2023-08-07T11:51:21;4.03;;;2.30;;
8831;SDS011;4452;50.756;4.472;2023-08-07T11:53:48;3.95;;;2.50;;
8831;SDS011;4452;50.756;4.472;2023-08-07T11:56:14;4.25;;;2.30;;
8831;SDS011;4452;50.756;4.472;2023-08-07T11:58:40;2.83;;;2.50;;
8831;SDS011;4452;50.756;4.472;2023-08-07T12:01:18;3.28;;;2.78;;
8831;SDS011;4452;50.756;4.472;2023-08-07T12:06:33;3.17;;;2.40;;
8831;SDS011;4452;50.756;4.472;2023-08-07T12:09:00;2.72;;;2.42;;
8831;SDS011;4452;50.756;4.472;2023-08-07T12:11:28;3.40;;;2.67;;
8831;SDS011;4452;50.756;4.472;2023-08-07T12:13:55;4.72;;;2.45;;
8831;SDS011;4452;50.756;4.472;2023-08-07T12:16:20;2.80;;;2.60;;
8831;SDS011;4452;50.756;4.472;2023-08-07T12:18:52;2.40;;;2.20;;
8831;SDS011;4452;50.756;4.472;2023-08-07T12:21:20;2.55;;;2.40;;
8831;SDS011;4452;50.756;4.472;2023-08-07T12:23:49;3.13;;;2.10;;
8831;SDS011;4452;50.756;4.472;2023-08-07T12:26:15;5.68;;;2.70;;
8831;SDS011;4452;50.756;4.472;2023-08-07T12:28:42;2.15;;;2.05;;
8831;SDS011;4452;50.756;4.472;2023-08-07T12:31:09;4.55;;;2.25;;
8831;SDS011;4452;50.756;4.472;2023-08-07T12:33:34;2.17;;;2.08;;
8831;SDS011;4452;50.756;4.472;2023-08-07T12:36:01;3.85;;;2.22;;
8831;SDS011;4452;50.756;4.472;2023-08-07T12:38:27;4.13;;;2.40;;
8831;SDS011;4452;50.756;4.472;2023-08-07T12:40:53;2.22;;;2.13;;
8831;SDS011;4452;50.756;4.472;2023-08-07T12:43:19;2.55;;;2.35;;
8831;SDS011;4452;50.756;4.472;2023-08-07T12:45:44;2.65;;;2.45;;
8831;SDS011;4452;50.756;4.472;2023-08-07T12:48:10;2.50;;;2.30;;
8831;SDS011;4452;50.756;4.472;2023-08-07T12:50:36;2.20;;;2.10;;
8831;SDS011;4452;50.756;4.472;2023-08-07T12:53:04;2.92;;;2.50;;
8831;SDS011;4452;50.756;4.472;2023-08-07T12:55:29;2.17;;;2.08;;
8831;SDS011;4452;50.756;4.472;2023-08-07T12:57:56;3.42;;;2.30;;
8831;SDS011;4452;50.756;4.472;2023-08-07T13:00:22;2.55;;;2.13;;
8831;SDS011;4452;50.756;4.472;2023-08-07T13:02:49;2.50;;;2.30;;
8831;SDS011;4452;50.756;4.472;2023-08-07T13:05:15;2.20;;;2.00;;
8831;SDS011;4452;50.756;4.472;2023-08-07T13:07:43;4.05;;;2.08;;
8831;SDS011;4452;50.756;4.472;2023-08-07T13:10:10;2.20;;;2.10;;
8831;SDS011;4452;50.756;4.472;2023-08-07T13:12:39;2.47;;;2.00;;
8831;SDS011;4452;50.756;4.472;2023-08-07T13:15:06;1.98;;;1.88;;
8831;SDS011;4452;50.756;4.472;2023-08-07T13:17:33;3.17;;;2.22;;
8831;SDS011;4452;50.756;4.472;2023-08-07T13:20:00;4.35;;;2.00;;
8831;SDS011;4452;50.756;4.472;2023-08-07T13:22:27;2.10;;;1.90;;
8831;SDS011;4452;50.756;4.472;2023-08-07T13:24:54;2.20;;;2.10;;
8831;SDS011;4452;50.756;4.472;2023-08-07T13:27:20;2.70;;;2.50;;
8831;SDS011;4452;50.756;4.472;2023-08-07T13:29:46;2.75;;;2.30;;
8831;SDS011;4452;50.756;4.472;2023-08-07T13:32:13;2.20;;;2.10;;
8831;SDS011;4452;50.756;4.472;2023-08-07T13:34:39;2.03;;;1.90;;
8831;SDS011;4452;50.756;4.472;2023-08-07T13:37:06;2.00;;;1.90;;
8831;SDS011;4452;50.756;4.472;2023-08-07T13:39:32;2.45;;;2.25;;
8831;SDS011;4452;50.756;4.472;2023-08-07T13:41:58;2.22;;;2.00;;
8831;SDS011;4452;50.756;4.472;2023-08-07T13:44:27;1.88;;;1.80;;
8831;SDS011;4452;50.756;4.472;2023-08-07T13:46:54;2.17;;;2.08;;
8831;SDS011;4452;50.756;4.472;2023-08-07T13:49:21;2.03;;;1.80;;
8831;SDS011;4452;50.756;4.472;2023-08-07T13:51:47;1.90;;;1.80;;
8831;SDS011;4452;50.756;4.472;2023-08-07T13:54:12;2.25;;;2.03;;
8831;SDS011;4452;50.756;4.472;2023-08-07T13:56:38;2.33;;;2.20;;
8831;SDS011;4452;50.756;4.472;2023-08-07T13:59:04;2.20;;;2.10;;
8831;SDS011;4452;50.756;4.472;2023-08-07T14:01:29;2.15;;;2.05;;
8831;SDS011;4452;50.756;4.472;2023-08-07T14:03:56;1.95;;;1.80;;
8831;SDS011;4452;50.756;4.472;2023-08-07T14:06:21;1.88;;;1.80;;
8831;SDS011;4452;50.756;4.472;2023-08-07T14:08:47;2.05;;;1.95;;
8831;SDS011;4452;50.756;4.472;2023-08-07T14:11:13;1.98;;;1.85;;
8831;SDS011;4452;50.756;4.472;2023-08-07T14:13:40;1.83;;;1.73;;
8831;SDS011;4452;50.756;4.472;2023-08-07T14:16:06;5.13;;;2.10;;
8831;SDS011;4452;50.756;4.472;2023-08-07T14:18:32;2.42;;;2.13;;
8831;SDS011;4452;50.756;4.472;2023-08-07T14:20:58;1.67;;;1.58;;
8831;SDS011;4452;50.756;4.472;2023-08-07T14:23:23;1.90;;;1.80;;
8831;SDS011;4452;50.756;4.472;2023-08-07T14:25:49;2.00;;;1.90;;
8831;SDS011;4452;50.756;4.472;2023-08-07T14:28:16;3.10;;;2.00;;
8831;SDS011;4452;50.756;4.472;2023-08-07T14:30:42;2.22;;;2.10;;
8831;SDS011;4452;50.756;4.472;2023-08-07T14:33:08;1.88;;;1.88;;
8831;SDS011;4452;50.756;4.472;2023-08-07T14:35:34;2.67;;;2.30;;
8831;SDS011;4452;50.756;4.472;2023-08-07T14:37:59;2.67;;;2.13;;
8831;SDS011;4452;50.756;4.472;2023-08-07T14:40:25;1.92;;;1.83;;
8831;SDS011;4452;50.756;4.472;2023-08-07T14:42:53;3.28;;;2.22;;
8831;SDS011;4452;50.756;4.472;2023-08-07T14:45:20;1.90;;;1.80;;
8831;SDS011;4452;50.756;4.472;2023-08-07T14:47:46;1.90;;;1.90;;
8831;SDS011;4452;50.756;4.472;2023-08-07T14:50:11;1.85;;;1.80;;
8831;SDS011;4452;50.756;4.472;2023-08-07T14:52:37;2.00;;;1.90;;
8831;SDS011;4452;50.756;4.472;2023-08-07T14:55:04;3.10;;;2.20;;
8831;SDS011;4452;50.756;4.472;2023-08-07T14:57:30;1.90;;;1.80;;
8831;SDS011;4452;50.756;4.472;2023-08-07T14:59:56;1.90;;;1.80;;
8831;SDS011;4452;50.756;4.472;2023-08-07T15:02:21;2.15;;;1.90;;
8831;SDS011;4452;50.756;4.472;2023-08-07T15:04:47;2.88;;;2.58;;
8831;SDS011;4452;50.756;4.472;2023-08-07T15:07:13;2.10;;;2.00;;
8831;SDS011;4452;50.756;4.472;2023-08-07T15:09:38;2.05;;;1.95;;
8831;SDS011;4452;50.756;4.472;2023-08-07T15:12:04;1.98;;;1.90;;
8831;SDS011;4452;50.756;4.472;2023-08-07T15:14:31;2.75;;;2.22;;
8831;SDS011;4452;50.756;4.472;2023-08-07T15:16:57;3.83;;;2.20;;
8831;SDS011;4452;50.756;4.472;2023-08-07T15:19:23;2.25;;;2.00;;
8831;SDS011;4452;50.756;4.472;2023-08-07T15:21:52;2.33;;;2.13;;
8831;SDS011;4452;50.756;4.472;2023-08-07T15:24:19;2.97;;;2.08;;
8831;SDS011;4452;50.756;4.472;2023-08-07T15:26:44;2.47;;;2.00;;
8831;SDS011;4452;50.756;4.472;2023-08-07T15:29:10;1.90;;;1.80;;
8831;SDS011;4452;50.756;4.472;2023-08-07T15:31:36;1.83;;;1.73;;
8831;SDS011;4452;50.756;4.472;2023-08-07T15:34:02;2.53;;;2.00;;
8831;SDS011;4452;50.756;4.472;2023-08-07T15:36:29;3.78;;;1.90;;
8831;SDS011;4452;50.756;4.472;2023-08-07T15:38:54;2.47;;;2.00;;
8831;SDS011;4452;50.756;4.472;2023-08-07T15:41:22;3.35;;;1.80;;
8831;SDS011;4452;50.756;4.472;2023-08-07T15:43:47;2.15;;;1.83;;
8831;SDS011;4452;50.756;4.472;2023-08-07T15:46:16;1.92;;;1.88;;
8831;SDS011;4452;50.756;4.472;2023-08-07T15:48:42;2.22;;;2.03;;
8831;SDS011;4452;50.756;4.472;2023-08-07T15:51:08;3.78;;;1.90;;
8831;SDS011;4452;50.756;4.472;2023-08-07T15:53:34;1.92;;;1.83;;
8831;SDS011;4452;50.756;4.472;2023-08-07T15:56:00;1.90;;;1.80;;
8831;SDS011;4452;50.756;4.472;2023-08-07T15:58:26;2.45;;;1.75;;
8831;SDS011;4452;50.756;4.472;2023-08-07T16:00:51;1.80;;;1.70;;
8831;SDS011;4452;50.756;4.472;2023-08-07T16:03:17;1.80;;;1.70;;
8831;SDS011;4452;50.756;4.472;2023-08-07T16:05:43;1.85;;;1.83;;
8831;SDS011;4452;50.756;4.472;2023-08-07T16:08:10;2.17;;;2.08;;
8831;SDS011;4452;50.756;4.472;2023-08-07T16:10:37;2.30;;;2.10;;
8831;SDS011;4452;50.756;4.472;2023-08-07T16:13:03;2.05;;;1.95;;
8831;SDS011;4452;50.756;4.472;2023-08-07T16:15:29;1.42;;;1.42;;
8831;SDS011;4452;50.756;4.472;2023-08-07T16:17:54;1.92;;;1.63;;
8831;SDS011;4452;50.756;4.472;2023-08-07T16:20:22;1.50;;;1.50;;
8831;SDS011;4452;50.756;4.472;2023-08-07T16:22:48;2.10;;;1.90;;
8831;SDS011;4452;50.756;4.472;2023-08-07T16:25:14;1.70;;;1.70;;
8831;SDS011;4452;50.756;4.472;2023-08-07T16:27:39;1.88;;;1.75;;
8831;SDS011;4452;50.756;4.472;2023-08-07T16:30:05;2.03;;;1.92;;
8831;SDS011;4452;50.756;4.472;2023-08-07T16:32:32;2.10;;;1.95;;
8831;SDS011;4452;50.756;4.472;2023-08-07T16:34:59;2.13;;;1.88;;
8831;SDS011;4452;50.756;4.472;2023-08-07T16:37:26;1.90;;;1.80;;
8831;SDS011;4452;50.756;4.472;2023-08-07T16:39:52;1.90;;;1.80;;
8831;SDS011;4452;50.756;4.472;2023-08-07T16:42:18;2.20;;;1.90;;
8831;SDS011;4452;50.756;4.472;2023-08-07T16:44:44;1.88;;;1.77;;